Time;durP1;ratioP1;P1;durP2;ratioP2;P2;SDS_P1;SDS_P2;PMS_P1;PMS_P2;Temp;Humidity;BMP_temperature;BMP_pressure;BME280_temperature;BME280_humidity;BME280_pressure;Samples;Min_cycle;Max_cycle;Signal;HPM_P1;HPM_P2
2022/12/14 00:00:54;;;;;;;39.67;14.93;;;-4.40;99.90;;;;;;5058704;28;20312;-54
2022/12/14 00:03:22;;;;;;;30.77;16.10;;;-4.40;99.90;;;;;;5058794;28;20256;-55
2022/12/14 00:05:49;;;;;;;35.30;15.47;;;-4.50;99.90;;;;;;5064877;28;20213;-52
2022/12/14 00:08:17;;;;;;;33.47;15.93;;;-4.50;99.90;;;;;;5048808;28;20220;-48
2022/12/14 00:10:45;;;;;;;32.07;15.03;;;-4.50;99.90;;;;;;5064966;28;20245;-51
2022/12/14 00:13:14;;;;;;;26.90;14.23;;;-4.50;99.90;;;;;;5048454;28;20202;-46
2022/12/14 00:15:42;;;;;;;26.37;14.57;;;-4.50;99.90;;;;;;5064281;28;20575;-53
2022/12/14 00:18:11;;;;;;;26.93;14.80;;;-4.50;99.90;;;;;;5062289;28;20218;-48
2022/12/14 00:20:37;;;;;;;29.30;13.97;;;-4.50;99.90;;;;;;5062258;28;20949;-56
2022/12/14 00:23:04;;;;;;;29.97;15.17;;;-4.50;99.90;;;;;;5049920;28;20299;-49
2022/12/14 00:25:31;;;;;;;31.33;15.40;;;-4.50;99.90;;;;;;5062690;28;20197;-54
2022/12/14 00:27:58;;;;;;;26.57;14.97;;;-4.50;99.90;;;;;;5057144;28;20198;-55
2022/12/14 00:30:25;;;;;;;31.13;14.13;;;-4.50;99.90;;;;;;5054482;28;20204;-54
2022/12/14 00:32:54;;;;;;;34.37;16.83;;;-4.50;99.90;;;;;;5064360;28;20203;-52
2022/12/14 00:35:21;;;;;;;28.77;15.17;;;-4.50;99.90;;;;;;5061435;28;20194;-53
2022/12/14 00:37:48;;;;;;;29.00;15.17;;;-4.50;99.90;;;;;;5051909;28;20254;-52
2022/12/14 00:40:15;;;;;;;29.10;14.90;;;-4.50;99.90;;;;;;5062119;28;20209;-49
2022/12/14 00:42:42;;;;;;;30.60;16.27;;;-4.50;99.90;;;;;;5059720;28;20230;-52
2022/12/14 00:45:10;;;;;;;28.27;14.93;;;-4.50;99.90;;;;;;5056252;28;20314;-45
2022/12/14 00:47:37;;;;;;;28.13;14.70;;;-4.50;99.90;;;;;;5064758;28;20217;-50
2022/12/14 00:50:07;;;;;;;26.10;13.60;;;-4.50;99.90;;;;;;5065084;28;20202;-44
2022/12/14 00:52:34;;;;;;;30.67;14.57;;;-4.50;99.90;;;;;;5062593;28;20233;-55
2022/12/14 00:55:01;;;;;;;30.30;14.07;;;-4.50;99.90;;;;;;5052069;28;20215;-45
2022/12/14 00:57:29;;;;;;;29.40;14.27;;;-4.50;99.90;;;;;;5056395;28;20287;-54
2022/12/14 00:59:56;;;;;;;25.13;13.17;;;-4.50;99.90;;;;;;5050774;28;20225;-47
2022/12/14 01:02:23;;;;;;;27.00;14.37;;;-4.50;99.90;;;;;;5064405;28;20940;-53
2022/12/14 01:04:50;;;;;;;31.23;15.37;;;-4.50;99.90;;;;;;5065871;28;20216;-47
2022/12/14 01:07:18;;;;;;;27.60;13.33;;;-4.50;99.90;;;;;;5065208;28;20277;-51
2022/12/14 01:09:45;;;;;;;28.60;13.20;;;-4.50;99.90;;;;;;5051970;28;20206;-57
2022/12/14 01:12:12;;;;;;;25.73;12.73;;;-4.50;99.90;;;;;;5053784;28;20222;-56
2022/12/14 01:14:39;;;;;;;30.40;14.07;;;-4.50;99.90;;;;;;5061049;28;20217;-52
2022/12/14 01:17:06;;;;;;;24.87;13.03;;;-4.50;99.90;;;;;;5053419;28;20198;-53
2022/12/14 01:19:33;;;;;;;27.03;13.33;;;-4.50;99.90;;;;;;5066223;28;20632;-53
2022/12/14 01:22:00;;;;;;;24.17;13.40;;;-4.50;99.90;;;;;;5061275;28;20222;-47
2022/12/14 01:24:28;;;;;;;26.33;13.40;;;-4.50;99.90;;;;;;5053259;28;20288;-53
2022/12/14 01:26:56;;;;;;;24.33;12.33;;;-4.60;99.90;;;;;;5062720;28;20202;-49
2022/12/14 01:29:22;;;;;;;21.50;11.97;;;-4.60;99.90;;;;;;5050306;28;20223;-54
2022/12/14 01:31:49;;;;;;;28.00;12.83;;;-4.60;99.90;;;;;;5055326;28;20237;-49
2022/12/14 01:34:16;;;;;;;27.13;12.73;;;-4.60;99.90;;;;;;5061649;28;20370;-54
2022/12/14 01:36:43;;;;;;;26.50;12.70;;;-4.60;99.90;;;;;;5064093;28;20223;-51
2022/12/14 01:39:13;;;;;;;24.07;12.43;;;-4.70;99.90;;;;;;5059463;28;20217;-55
2022/12/14 01:41:43;;;;;;;25.17;13.47;;;-4.70;99.90;;;;;;5053922;28;20218;-52
2022/12/14 01:44:48;;;;;;;25.03;12.67;;;-4.80;99.90;;;;;;5060633;28;20656;-53
2022/12/14 01:47:21;;;;;;;24.47;11.40;;;-4.80;99.90;;;;;;5057965;28;20210;-51
2022/12/14 01:49:52;;;;;;;19.63;11.10;;;-4.80;99.90;;;;;;5062277;28;20284;-56
2022/12/14 01:52:24;;;;;;;21.10;11.40;;;-4.90;99.90;;;;;;5068363;28;20229;-47
2022/12/14 01:54:56;;;;;;;20.23;11.97;;;-4.90;99.90;;;;;;5055180;28;20253;-54
2022/12/14 01:57:29;;;;;;;21.93;11.37;;;-4.90;99.90;;;;;;5060881;28;20203;-46
2022/12/14 01:59:57;;;;;;;23.13;11.67;;;-4.90;99.90;;;;;;5050972;28;20213;-51
2022/12/14 02:02:26;;;;;;;24.03;11.57;;;-4.90;99.90;;;;;;5058083;28;20222;-45
2022/12/14 02:04:57;;;;;;;26.80;11.97;;;-5.00;99.90;;;;;;5058805;28;20237;-49
2022/12/14 02:07:26;;;;;;;21.47;11.00;;;-5.00;99.90;;;;;;5065584;28;20240;-46
2022/12/14 02:09:56;;;;;;;16.30;10.53;;;-5.00;99.90;;;;;;5066969;28;20208;-53
2022/12/14 02:12:31;;;;;;;20.87;11.53;;;-5.00;99.90;;;;;;5052757;28;20225;-46
2022/12/14 02:15:00;;;;;;;23.23;11.27;;;-5.00;99.90;;;;;;5059302;28;20204;-52
2022/12/14 02:17:28;;;;;;;20.10;10.83;;;-5.10;99.90;;;;;;5059104;28;20197;-44
2022/12/14 02:19:56;;;;;;;20.17;11.67;;;-5.20;99.90;;;;;;5064171;28;20734;-53
2022/12/14 02:23:00;;;;;;;24.10;11.77;;;-5.20;99.90;;;;;;5068409;28;20215;-44
2022/12/14 02:25:54;;;;;;;18.40;10.53;;;-5.30;99.90;;;;;;5061859;28;20552;-44
2022/12/14 02:28:49;;;;;;;18.40;10.10;;;-5.30;99.90;;;;;;5048899;28;20201;-47
2022/12/14 02:31:24;;;;;;;21.10;11.30;;;-5.30;99.90;;;;;;5053980;28;20267;-49
2022/12/14 02:33:57;;;;;;;21.20;10.70;;;-5.30;99.90;;;;;;5064635;28;20295;-54
2022/12/14 02:36:31;;;;;;;18.00;10.10;;;-5.30;99.90;;;;;;5063865;28;20233;-51
2022/12/14 02:39:09;;;;;;;20.10;10.30;;;-5.30;99.90;;;;;;5073235;28;20203;-52
2022/12/14 02:41:41;;;;;;;21.50;11.03;;;-5.40;99.90;;;;;;5071752;28;20300;-51
2022/12/14 02:44:16;;;;;;;19.27;10.73;;;-5.40;99.90;;;;;;5051106;28;20310;-49
2022/12/14 02:46:51;;;;;;;24.63;11.47;;;-5.40;99.90;;;;;;5058010;28;20189;-50
2022/12/14 02:49:32;;;;;;;22.67;10.60;;;-5.40;99.90;;;;;;5063201;28;20207;-51
2022/12/14 02:52:07;;;;;;;25.17;11.87;;;-5.40;99.90;;;;;;5065140;28;20237;-49
2022/12/14 02:54:41;;;;;;;23.43;11.40;;;-5.40;99.90;;;;;;5064035;28;20205;-46
2022/12/14 02:57:13;;;;;;;22.80;11.57;;;-5.40;99.90;;;;;;5060699;28;20205;-48
2022/12/14 02:59:41;;;;;;;23.70;12.37;;;-5.40;99.90;;;;;;5039475;28;20199;-54
2022/12/14 03:02:12;;;;;;;23.70;11.53;;;-5.40;99.90;;;;;;5054867;28;20585;-47
2022/12/14 03:04:44;;;;;;;22.13;10.60;;;-5.40;99.90;;;;;;5043434;28;20194;-53
2022/12/14 03:07:31;;;;;;;22.87;10.77;;;-5.40;99.90;;;;;;5056239;28;20233;-51
2022/12/14 03:10:03;;;;;;;20.70;10.90;;;-5.40;99.90;;;;;;5063674;28;20212;-48
2022/12/14 03:12:30;;;;;;;19.80;10.43;;;-5.40;99.90;;;;;;5060324;28;20227;-60
2022/12/14 03:14:59;;;;;;;19.90;10.17;;;-5.40;99.90;;;;;;5047926;28;20273;-46
2022/12/14 03:17:30;;;;;;;19.33;9.47;;;-5.40;99.90;;;;;;5048873;28;20664;-62
2022/12/14 03:20:01;;;;;;;23.77;11.27;;;-5.40;99.90;;;;;;5053014;28;20725;-51
2022/12/14 03:22:33;;;;;;;22.47;10.60;;;-5.50;99.90;;;;;;5058456;28;20218;-59
2022/12/14 03:25:07;;;;;;;21.57;11.47;;;-5.50;99.90;;;;;;5060166;28;20209;-48
2022/12/14 03:27:38;;;;;;;19.40;11.17;;;-5.50;99.90;;;;;;5053671;28;20948;-46
2022/12/14 03:30:08;;;;;;;19.87;10.20;;;-5.60;99.90;;;;;;5045964;28;20774;-47
2022/12/14 03:32:42;;;;;;;17.20;10.20;;;-5.60;99.90;;;;;;5047887;28;20225;-49
2022/12/14 03:35:15;;;;;;;19.90;9.30;;;-5.70;99.90;;;;;;5048319;28;20610;-44
2022/12/14 03:37:49;;;;;;;19.40;10.43;;;-5.70;99.90;;;;;;5060739;28;20881;-46
2022/12/14 03:40:17;;;;;;;17.23;9.87;;;-5.80;99.90;;;;;;5063613;28;20283;-59
2022/12/14 03:42:57;;;;;;;16.77;9.97;;;-5.80;99.90;;;;;;5060756;28;20218;-50
2022/12/14 03:45:31;;;;;;;26.63;10.90;;;-5.80;99.90;;;;;;5047623;28;20840;-60
2022/12/14 03:48:09;;;;;;;21.20;11.57;;;-5.80;99.90;;;;;;5054753;28;20288;-48
2022/12/14 03:50:41;;;;;;;20.90;10.97;;;-5.80;99.90;;;;;;5039487;28;20214;-49
2022/12/14 03:53:12;;;;;;;22.07;10.53;;;-5.80;99.90;;;;;;5061785;28;20655;-47
2022/12/14 03:55:47;;;;;;;19.50;10.53;;;-5.80;99.90;;;;;;5060073;28;20201;-46
2022/12/14 03:58:36;;;;;;;17.33;10.13;;;-5.80;99.90;;;;;;5063202;28;20696;-56
2022/12/14 04:01:17;;;;;;;24.10;10.70;;;-5.80;99.90;;;;;;5050306;28;20226;-51
2022/12/14 04:03:52;;;;;;;17.50;10.20;;;-5.70;99.90;;;;;;5055462;28;20230;-46
2022/12/14 04:06:28;;;;;;;18.00;10.53;;;-5.70;99.90;;;;;;5047836;28;20213;-59
2022/12/14 04:09:03;;;;;;;19.80;9.87;;;-5.80;99.90;;;;;;5062604;28;20695;-44
2022/12/14 04:20:04;;;;;;;19.87;9.83;;;-5.90;99.90;;;;;;5059072;28;20660;-47
2022/12/14 04:22:38;;;;;;;21.77;10.07;;;-6.00;99.90;;;;;;5044800;28;20229;-63
2022/12/14 04:27:56;;;;;;;20.07;11.17;;;-6.10;99.90;;;;;;5051946;28;20208;-60
2022/12/14 04:30:23;;;;;;;24.33;10.63;;;-6.20;99.90;;;;;;5054688;28;20200;-52
2022/12/14 04:32:54;;;;;;;20.07;9.57;;;-6.30;99.90;;;;;;5048407;28;20569;-59
2022/12/14 04:35:25;;;;;;;20.27;10.33;;;-6.30;99.90;;;;;;5056474;28;20457;-48
2022/12/14 04:37:59;;;;;;;19.33;9.10;;;-6.30;99.90;;;;;;5037791;28;20298;-59
2022/12/14 04:40:32;;;;;;;19.63;9.83;;;-6.40;99.90;;;;;;5059006;28;20194;-50
2022/12/14 04:43:03;;;;;;;19.10;9.67;;;-6.40;99.90;;;;;;5059350;28;20641;-60
2022/12/14 04:45:33;;;;;;;17.23;9.03;;;-6.30;99.90;;;;;;5061124;28;20204;-51
2022/12/14 04:48:09;;;;;;;19.03;10.13;;;-6.30;99.90;;;;;;5053149;28;20223;-63
2022/12/14 04:50:42;;;;;;;18.37;10.27;;;-6.30;99.90;;;;;;5053290;28;20219;-49
2022/12/14 04:53:13;;;;;;;17.40;9.37;;;-6.20;99.90;;;;;;5045049;28;20720;-60
2022/12/14 04:55:46;;;;;;;19.57;10.00;;;-6.20;99.90;;;;;;5062858;28;20207;-46
2022/12/14 04:58:20;;;;;;;21.77;10.13;;;-6.30;99.90;;;;;;5050276;28;21274;-45
2022/12/14 05:01:04;;;;;;;18.70;10.27;;;-6.40;99.90;;;;;;5055331;28;20205;-48
2022/12/14 05:03:35;;;;;;;17.43;9.70;;;-6.40;99.90;;;;;;5045785;28;20614;-50
2022/12/14 05:06:10;;;;;;;20.67;10.43;;;-6.50;99.90;;;;;;5048767;28;20213;-62
2022/12/14 05:09:12;;;;;;;18.77;9.70;;;-6.50;99.90;;;;;;5046284;28;20265;-61
2022/12/14 05:11:45;;;;;;;19.10;10.43;;;-6.50;99.90;;;;;;5057084;28;20594;-53
2022/12/14 05:14:19;;;;;;;21.33;10.03;;;-6.50;99.90;;;;;;5058978;28;20280;-49
2022/12/14 05:16:48;;;;;;;20.93;10.23;;;-6.60;99.90;;;;;;5062799;28;20262;-50
2022/12/14 05:19:15;;;;;;;19.50;10.40;;;-6.60;99.90;;;;;;5044157;28;20204;-46
2022/12/14 05:21:49;;;;;;;21.67;11.07;;;-6.60;99.90;;;;;;5055545;28;21049;-56
2022/12/14 05:24:16;;;;;;;21.43;10.37;;;-6.60;99.90;;;;;;5039281;28;20231;-45
2022/12/14 05:26:44;;;;;;;21.23;10.30;;;-6.50;99.90;;;;;;5062479;28;20207;-55
2022/12/14 05:29:11;;;;;;;19.20;10.07;;;-6.50;99.90;;;;;;5044842;28;20841;-52
2022/12/14 05:31:38;;;;;;;20.10;10.23;;;-6.50;99.90;;;;;;5059606;28;20248;-44
2022/12/14 05:34:05;;;;;;;21.97;9.73;;;-6.50;99.90;;;;;;5046883;28;20197;-63
2022/12/14 05:36:32;;;;;;;17.17;9.60;;;-6.60;99.90;;;;;;5057981;28;20548;-46
2022/12/14 05:39:01;;;;;;;17.93;9.33;;;-6.60;99.90;;;;;;5046572;28;20206;-62
2022/12/14 05:41:28;;;;;;;16.80;9.23;;;-6.60;99.90;;;;;;5053006;28;20227;-49
2022/12/14 05:43:55;;;;;;;18.57;10.23;;;-6.60;99.90;;;;;;5057168;28;20301;-60
2022/12/14 05:46:22;;;;;;;17.40;9.03;;;-6.70;99.90;;;;;;5054235;28;20193;-45
2022/12/14 05:48:48;;;;;;;22.27;10.13;;;-6.70;99.90;;;;;;5055751;28;20212;-51
2022/12/14 05:51:15;;;;;;;20.83;9.53;;;-6.70;99.90;;;;;;5038033;28;20220;-46
2022/12/14 05:53:42;;;;;;;21.80;10.07;;;-6.80;99.90;;;;;;5046899;28;20588;-62
2022/12/14 05:56:11;;;;;;;18.67;10.47;;;-6.80;99.90;;;;;;5043957;28;20257;-46
2022/12/14 05:58:39;;;;;;;26.47;11.50;;;-6.80;99.90;;;;;;5059003;28;20203;-62
2022/12/14 06:01:07;;;;;;;19.87;10.80;;;-6.90;99.90;;;;;;5062064;28;20230;-50
2022/12/14 06:03:34;;;;;;;21.07;10.67;;;-6.90;99.90;;;;;;5059156;28;20206;-60
2022/12/14 06:06:02;;;;;;;24.53;11.10;;;-6.90;99.90;;;;;;5046337;28;20219;-47
2022/12/14 06:08:32;;;;;;;19.70;9.63;;;-6.90;99.90;;;;;;5049607;28;20200;-62
2022/12/14 06:11:03;;;;;;;20.00;10.13;;;-6.90;99.90;;;;;;5045812;28;20268;-53
2022/12/14 06:13:32;;;;;;;18.63;9.87;;;-6.90;99.90;;;;;;5061289;28;20200;-61
2022/12/14 06:16:10;;;;;;;18.13;9.80;;;-6.90;99.90;;;;;;5062176;28;20201;-50
2022/12/14 06:18:40;;;;;;;19.80;10.47;;;-6.80;99.90;;;;;;5057015;28;20209;-61
2022/12/14 06:21:07;;;;;;;19.50;10.07;;;-6.80;99.90;;;;;;5050976;28;20226;-47
2022/12/14 06:23:34;;;;;;;20.80;10.90;;;-6.80;99.90;;;;;;5047626;28;20228;-44
2022/12/14 06:26:01;;;;;;;19.53;9.77;;;-6.80;99.90;;;;;;5046365;28;20207;-61
2022/12/14 06:28:27;;;;;;;24.23;11.60;;;-6.80;99.90;;;;;;5046320;28;20233;-51
2022/12/14 06:30:55;;;;;;;18.43;9.93;;;-6.70;99.90;;;;;;5054051;28;20251;-60
2022/12/14 06:33:22;;;;;;;17.93;10.37;;;-6.70;99.90;;;;;;5055429;28;20212;-49
2022/12/14 06:35:49;;;;;;;20.80;10.50;;;-6.70;99.90;;;;;;5052165;28;20201;-60
2022/12/14 06:38:16;;;;;;;21.27;10.73;;;-6.70;99.90;;;;;;5054498;28;20194;-52
2022/12/14 06:40:43;;;;;;;21.17;10.83;;;-6.80;99.90;;;;;;5059517;28;20542;-56
2022/12/14 06:43:10;;;;;;;22.87;10.80;;;-6.80;99.90;;;;;;5048498;28;20196;-50
2022/12/14 06:45:39;;;;;;;24.23;11.40;;;-6.80;99.90;;;;;;5060893;28;20282;-48
2022/12/14 06:48:07;;;;;;;22.13;11.47;;;-6.90;99.90;;;;;;5054165;28;20211;-50
2022/12/14 06:50:34;;;;;;;18.77;9.87;;;-6.80;99.90;;;;;;5061945;28;20553;-48
2022/12/14 06:53:01;;;;;;;20.23;10.07;;;-6.80;99.90;;;;;;5045539;28;20208;-61
2022/12/14 06:55:28;;;;;;;24.57;11.00;;;-6.80;99.90;;;;;;5060299;28;20193;-57
2022/12/14 06:57:56;;;;;;;20.07;10.83;;;-6.80;99.90;;;;;;5047044;28;20641;-60
2022/12/14 07:00:24;;;;;;;27.30;11.03;;;-6.80;99.90;;;;;;5053213;28;20211;-50
2022/12/14 07:02:51;;;;;;;19.00;10.43;;;-6.80;99.90;;;;;;5059695;28;20709;-61
2022/12/14 07:05:19;;;;;;;19.40;10.43;;;-6.80;99.90;;;;;;5057642;28;20230;-47
2022/12/14 07:07:46;;;;;;;23.77;11.43;;;-6.90;99.90;;;;;;5047541;28;20203;-58
2022/12/14 07:10:13;;;;;;;21.27;10.13;;;-6.80;99.90;;;;;;5053414;28;20269;-45
2022/12/14 07:12:40;;;;;;;24.10;11.07;;;-6.80;99.90;;;;;;5055008;28;20651;-48
2022/12/14 07:15:08;;;;;;;20.53;11.03;;;-6.80;99.90;;;;;;5039535;28;20190;-46
2022/12/14 07:17:37;;;;;;;23.00;11.90;;;-6.80;99.90;;;;;;5056042;28;20270;-48
2022/12/14 07:20:07;;;;;;;20.07;11.60;;;-6.80;99.90;;;;;;5043021;28;20195;-45
2022/12/14 07:22:36;;;;;;;21.23;11.10;;;-6.80;99.90;;;;;;5032192;28;20229;-52
2022/12/14 07:25:03;;;;;;;25.07;11.23;;;-6.80;99.90;;;;;;5046510;28;20319;-46
2022/12/14 07:27:30;;;;;;;21.40;11.53;;;-6.80;99.90;;;;;;5046759;28;20802;-46
2022/12/14 07:29:57;;;;;;;20.63;10.43;;;-6.70;99.90;;;;;;5047457;28;21184;-55
2022/12/14 07:32:23;;;;;;;24.67;10.90;;;-6.70;99.90;;;;;;5049723;28;20241;-57
2022/12/14 07:34:50;;;;;;;22.97;11.57;;;-6.70;99.90;;;;;;5052759;28;20207;-49
2022/12/14 07:37:17;;;;;;;21.63;10.63;;;-6.70;99.90;;;;;;5051960;28;20703;-62
2022/12/14 07:39:45;;;;;;;25.53;11.37;;;-6.70;99.90;;;;;;5041065;28;21081;-46
2022/12/14 07:42:12;;;;;;;22.73;11.43;;;-6.70;99.90;;;;;;5047112;28;21018;-57
2022/12/14 07:44:43;;;;;;;18.37;10.93;;;-6.70;99.90;;;;;;5032853;28;20239;-60
2022/12/14 07:47:10;;;;;;;24.70;11.17;;;-6.70;99.90;;;;;;5054392;28;20896;-49
2022/12/14 07:49:37;;;;;;;23.90;11.67;;;-6.70;99.90;;;;;;5051042;28;20237;-59
2022/12/14 07:52:05;;;;;;;19.00;11.07;;;-6.60;99.90;;;;;;5053403;28;20231;-50
2022/12/14 07:54:32;;;;;;;21.00;11.27;;;-6.60;99.90;;;;;;5039487;28;20894;-62
2022/12/14 07:57:00;;;;;;;19.07;11.27;;;-6.60;99.90;;;;;;5054730;28;20208;-47
2022/12/14 07:59:27;;;;;;;27.10;11.80;;;-6.60;99.90;;;;;;5042758;28;20222;-61
2022/12/14 08:01:54;;;;;;;23.00;11.07;;;-6.50;99.90;;;;;;5049107;28;21020;-47
2022/12/14 08:04:21;;;;;;;21.30;11.40;;;-6.50;99.90;;;;;;5050741;28;20221;-55
2022/12/14 08:06:48;;;;;;;21.83;12.23;;;-6.40;99.90;;;;;;5051371;28;20224;-47
2022/12/14 08:09:16;;;;;;;22.50;12.37;;;-6.40;99.90;;;;;;5039806;28;20214;-44
2022/12/14 08:11:42;;;;;;;23.17;11.30;;;-6.30;99.90;;;;;;5050800;28;20228;-52
2022/12/14 08:14:15;;;;;;;23.63;12.40;;;-6.30;99.90;;;;;;5047464;28;20217;-48
2022/12/14 08:16:43;;;;;;;23.07;11.93;;;-6.20;99.90;;;;;;5038986;28;20203;-54
2022/12/14 08:19:11;;;;;;;23.93;11.77;;;-6.20;99.90;;;;;;5050454;28;20209;-51
2022/12/14 08:21:38;;;;;;;18.97;11.53;;;-6.10;99.90;;;;;;5050696;28;20236;-58
2022/12/14 08:24:05;;;;;;;24.10;11.47;;;-6.10;99.90;;;;;;5042075;28;20222;-52
2022/12/14 08:26:32;;;;;;;25.57;12.87;;;-6.10;99.90;;;;;;5052164;28;20229;-59
2022/12/14 08:28:59;;;;;;;22.03;12.20;;;-6.00;99.90;;;;;;5055216;28;20209;-47
2022/12/14 08:31:27;;;;;;;23.37;11.63;;;-6.00;99.90;;;;;;5045465;28;20727;-59
2022/12/14 08:33:54;;;;;;;24.93;12.20;;;-5.90;99.90;;;;;;5049465;28;20207;-52
2022/12/14 08:36:23;;;;;;;24.20;13.23;;;-5.90;99.90;;;;;;5047429;28;20551;-58
2022/12/14 08:38:52;;;;;;;21.77;13.53;;;-5.80;99.90;;;;;;5050237;28;20851;-47
2022/12/14 08:41:20;;;;;;;24.97;11.83;;;-5.80;99.90;;;;;;5040990;28;20229;-56
2022/12/14 08:43:53;;;;;;;21.97;11.83;;;-5.70;99.90;;;;;;5043717;28;20246;-53
2022/12/14 08:46:21;;;;;;;23.40;12.13;;;-5.60;99.90;;;;;;5053737;28;20209;-61
2022/12/14 08:48:51;;;;;;;25.23;12.87;;;-5.60;99.90;;;;;;5042516;28;21567;-48
2022/12/14 08:51:19;;;;;;;25.07;12.20;;;-5.50;99.90;;;;;;5046986;28;20298;-47
2022/12/14 08:53:46;;;;;;;23.97;12.63;;;-5.30;99.90;;;;;;5043813;28;20192;-50
2022/12/14 08:56:15;;;;;;;28.33;13.20;;;-5.20;99.90;;;;;;5037733;28;20220;-57
2022/12/14 08:58:43;;;;;;;24.33;13.07;;;-5.20;99.90;;;;;;5047289;28;20208;-44
2022/12/14 09:01:12;;;;;;;26.23;13.43;;;-5.10;99.90;;;;;;5054869;28;20237;-54
2022/12/14 09:03:40;;;;;;;26.40;13.40;;;-5.10;99.90;;;;;;5047726;28;20286;-52
2022/12/14 09:06:13;;;;;;;22.20;12.83;;;-5.10;99.90;;;;;;5054299;28;20225;-45
2022/12/14 09:08:40;;;;;;;30.67;14.03;;;-5.00;99.90;;;;;;5040891;28;20874;-51
2022/12/14 09:11:11;;;;;;;21.07;12.40;;;-5.00;99.90;;;;;;5039251;28;20279;-45
2022/12/14 09:13:38;;;;;;;21.00;12.17;;;-4.80;99.90;;;;;;5046575;28;20213;-58
2022/12/14 09:16:07;;;;;;;24.33;13.17;;;-4.70;99.90;;;;;;5052518;28;20208;-49
2022/12/14 09:18:34;;;;;;;27.03;13.53;;;-4.70;99.90;;;;;;5043510;28;20646;-62
2022/12/14 09:21:02;;;;;;;26.80;12.53;;;-4.70;99.90;;;;;;5046306;28;20711;-44
2022/12/14 09:23:31;;;;;;;24.90;13.07;;;-4.60;99.90;;;;;;5053543;28;20202;-59
2022/12/14 09:25:59;;;;;;;26.87;12.53;;;-4.60;99.90;;;;;;5052561;28;20228;-56
2022/12/14 09:28:26;;;;;;;26.50;14.03;;;-4.60;99.90;;;;;;5028309;28;21796;-55
2022/12/14 09:30:57;;;;;;;31.87;13.53;;;-4.50;99.90;;;;;;5051902;28;20218;-46
2022/12/14 09:33:24;;;;;;;23.50;12.00;;;-4.50;99.90;;;;;;5054692;28;20209;-47
2022/12/14 09:35:51;;;;;;;25.53;13.40;;;-4.50;99.90;;;;;;5049356;28;20212;-51
2022/12/14 09:38:19;;;;;;;29.17;14.67;;;-4.40;99.90;;;;;;5055591;28;20989;-59
2022/12/14 09:40:52;;;;;;;29.70;14.60;;;-4.40;99.90;;;;;;5052008;28;20198;-49
2022/12/14 09:43:33;;;;;;;26.83;14.00;;;-4.30;99.90;;;;;;5033375;28;20290;-61
2022/12/14 09:46:10;;;;;;;23.63;13.47;;;-4.30;99.90;;;;;;5045254;28;20829;-53
2022/12/14 09:48:38;;;;;;;23.63;14.23;;;-4.20;99.90;;;;;;5055076;28;20182;-46
2022/12/14 09:51:06;;;;;;;27.00;14.03;;;-4.20;99.90;;;;;;5046861;28;20222;-57
2022/12/14 09:53:35;;;;;;;25.17;12.90;;;-4.10;99.90;;;;;;5057949;28;20281;-46
2022/12/14 09:56:05;;;;;;;26.07;13.03;;;-4.00;99.90;;;;;;5053094;28;20208;-55
2022/12/14 09:58:34;;;;;;;26.73;12.60;;;-3.90;99.90;;;;;;5043319;28;20209;-48
2022/12/14 10:01:15;;;;;;;22.90;13.57;;;-3.80;99.90;;;;;;5055606;28;20316;-46
2022/12/14 10:03:57;;;;;;;24.57;13.73;;;-3.50;99.90;;;;;;5059480;28;20255;-50
2022/12/14 10:06:35;;;;;;;25.83;14.47;;;-3.10;99.90;;;;;;5044355;28;20225;-46
2022/12/14 10:09:11;;;;;;;26.77;14.40;;;-2.80;99.90;;;;;;5058838;28;20209;-58
2022/12/14 10:11:48;;;;;;;22.90;13.27;;;-2.80;99.90;;;;;;5054034;28;20229;-51
2022/12/14 10:14:23;;;;;;;25.97;13.03;;;-2.90;99.90;;;;;;5042298;28;20217;-60
2022/12/14 10:16:59;;;;;;;21.93;12.33;;;-2.90;99.90;;;;;;5058753;28;20233;-51
2022/12/14 10:19:37;;;;;;;26.10;13.60;;;-2.90;99.90;;;;;;5051377;28;20222;-47
2022/12/14 10:22:10;;;;;;;20.73;12.93;;;-2.90;99.90;;;;;;5057722;28;20629;-60
2022/12/14 10:24:42;;;;;;;24.30;13.13;;;-2.90;99.90;;;;;;5058019;28;20961;-49
2022/12/14 10:27:17;;;;;;;24.20;12.60;;;-2.90;99.90;;;;;;5053686;28;20567;-58
2022/12/14 10:29:47;;;;;;;24.57;12.63;;;-2.80;99.90;;;;;;5047030;28;20199;-46
2022/12/14 10:32:20;;;;;;;21.63;12.73;;;-2.80;99.90;;;;;;5053865;28;20605;-59
2022/12/14 10:34:48;;;;;;;22.97;13.63;;;-2.80;99.90;;;;;;5061957;28;20278;-46
2022/12/14 10:37:25;;;;;;;22.20;12.60;;;-2.60;99.90;;;;;;5047217;28;20201;-61
2022/12/14 10:40:17;;;;;;;23.67;13.10;;;-2.60;99.90;;;;;;5064266;28;20222;-51
2022/12/14 10:42:52;;;;;;;22.00;12.77;;;-2.60;99.90;;;;;;5058130;28;20240;-49
2022/12/14 10:45:29;;;;;;;21.00;12.63;;;-2.60;99.90;;;;;;5070151;28;20244;-52
2022/12/14 10:48:05;;;;;;;24.93;12.87;;;-2.60;99.90;;;;;;5064344;28;20193;-49
2022/12/14 10:50:46;;;;;;;23.90;13.40;;;-2.60;99.90;;;;;;5039314;28;20194;-46
2022/12/14 10:53:19;;;;;;;22.13;12.57;;;-2.60;99.90;;;;;;5051752;28;20202;-59
2022/12/14 10:55:47;;;;;;;22.70;13.13;;;-2.50;99.90;;;;;;5049382;28;20195;-58
2022/12/14 10:58:15;;;;;;;25.00;12.63;;;-2.50;99.90;;;;;;5057902;28;20213;-47
2022/12/14 11:00:41;;;;;;;22.63;12.97;;;-2.40;99.90;;;;;;5061506;28;20211;-51
2022/12/14 11:03:14;;;;;;;22.63;13.23;;;-2.40;99.90;;;;;;5058617;28;20191;-50
2022/12/14 11:05:55;;;;;;;21.47;12.23;;;-2.40;99.90;;;;;;5034535;28;20217;-54
2022/12/14 11:08:39;;;;;;;24.90;12.90;;;-2.40;99.90;;;;;;5053918;28;20206;-52
2022/12/14 11:11:09;;;;;;;20.27;11.67;;;-2.40;99.90;;;;;;5038534;28;20431;-54
2022/12/14 11:13:37;;;;;;;21.47;12.63;;;-2.40;99.90;;;;;;5056280;28;20227;-51
2022/12/14 11:16:18;;;;;;;21.80;13.43;;;-2.40;99.90;;;;;;5055779;28;20174;-54
2022/12/14 11:18:56;;;;;;;22.13;13.27;;;-2.30;99.90;;;;;;5045958;28;20210;-49
2022/12/14 11:21:30;;;;;;;26.50;12.57;;;-2.30;99.90;;;;;;5034465;28;20234;-55
2022/12/14 11:23:56;;;;;;;22.90;12.77;;;-2.30;99.90;;;;;;5057215;28;20200;-49
2022/12/14 11:26:28;;;;;;;21.13;11.83;;;-2.30;99.90;;;;;;5047575;28;20692;-54
2022/12/14 11:28:59;;;;;;;22.70;12.47;;;-2.20;99.90;;;;;;5055665;28;20210;-47
2022/12/14 11:31:31;;;;;;;21.47;11.97;;;-2.20;99.90;;;;;;5056053;28;20219;-49
2022/12/14 11:34:00;;;;;;;22.27;12.70;;;-2.10;99.90;;;;;;5049621;28;20199;-49
2022/12/14 11:36:31;;;;;;;20.97;12.27;;;-2.10;99.90;;;;;;5043137;28;20203;-54
2022/12/14 11:39:00;;;;;;;21.53;11.80;;;-2.00;99.90;;;;;;5059378;28;20198;-47
2022/12/14 11:41:32;;;;;;;21.80;11.97;;;-1.90;99.90;;;;;;5056722;28;20281;-57
2022/12/14 11:44:21;;;;;;;19.57;12.33;;;-1.90;99.90;;;;;;5051288;28;20709;-47
2022/12/14 11:46:53;;;;;;;20.20;12.33;;;-1.80;99.90;;;;;;5055611;28;20755;-48
2022/12/14 11:49:27;;;;;;;30.00;15.90;;;-1.80;99.90;;;;;;5061773;28;20232;-50
2022/12/14 11:51:59;;;;;;;23.37;11.67;;;-1.70;99.90;;;;;;5041965;28;20231;-49
2022/12/14 11:54:26;;;;;;;18.20;10.67;;;-1.70;99.90;;;;;;5062569;28;20207;-54
2022/12/14 11:56:58;;;;;;;16.70;11.30;;;-1.60;99.90;;;;;;5045546;28;20198;-47
2022/12/14 11:59:31;;;;;;;16.93;11.27;;;-1.60;99.90;;;;;;5057145;28;20205;-57
2022/12/14 12:02:08;;;;;;;20.37;11.57;;;-1.50;99.90;;;;;;5045259;28;20226;-46
2022/12/14 12:04:45;;;;;;;19.70;10.87;;;-1.50;99.90;;;;;;5060373;28;20221;-51
2022/12/14 12:07:14;;;;;;;21.87;11.40;;;-1.40;99.90;;;;;;5040643;28;20979;-54
2022/12/14 12:09:42;;;;;;;18.77;11.33;;;-1.40;99.90;;;;;;5046355;28;20747;-50
2022/12/14 12:12:16;;;;;;;19.03;10.83;;;-1.40;99.90;;;;;;5057298;28;20250;-49
2022/12/14 12:14:46;;;;;;;21.33;11.33;;;-1.30;99.90;;;;;;5055558;28;20787;-49
2022/12/14 12:17:29;;;;;;;17.07;10.23;;;-1.30;99.90;;;;;;5050968;28;20630;-50
2022/12/14 12:19:56;;;;;;;20.10;10.97;;;-1.30;99.90;;;;;;5057280;28;20272;-49
2022/12/14 12:22:25;;;;;;;19.83;11.57;;;-1.30;99.90;;;;;;5043928;28;20234;-48
2022/12/14 12:24:56;;;;;;;20.67;10.80;;;-1.40;99.90;;;;;;5056661;28;20644;-53
2022/12/14 12:27:24;;;;;;;17.53;11.13;;;-1.30;99.90;;;;;;5051402;28;20269;-52
2022/12/14 12:30:00;;;;;;;17.97;10.47;;;-1.30;99.90;;;;;;5049843;28;20211;-50
2022/12/14 12:32:32;;;;;;;22.90;11.17;;;-1.20;99.90;;;;;;5041939;28;20309;-47
2022/12/14 12:35:07;;;;;;;20.13;11.57;;;-1.20;99.90;;;;;;5055669;28;20226;-53
2022/12/14 12:37:36;;;;;;;17.17;10.87;;;-1.10;99.90;;;;;;5031952;28;21110;-50
2022/12/14 12:40:11;;;;;;;21.43;11.10;;;-1.10;99.90;;;;;;5056173;28;20194;-56
2022/12/14 12:42:45;;;;;;;17.77;10.63;;;-1.10;99.90;;;;;;5042589;28;20222;-54
2022/12/14 12:45:20;;;;;;;16.07;11.43;;;-1.10;99.90;;;;;;5051784;28;20294;-50
2022/12/14 12:47:52;;;;;;;18.00;10.70;;;-1.10;99.90;;;;;;5051601;28;20193;-57
2022/12/14 12:50:24;;;;;;;16.83;10.70;;;-1.10;99.90;;;;;;5056141;28;20202;-49
2022/12/14 12:52:57;;;;;;;17.00;10.53;;;-1.10;99.90;;;;;;5049096;28;20250;-60
2022/12/14 12:55:26;;;;;;;16.43;10.63;;;-1.10;99.90;;;;;;5040179;28;20214;-46
2022/12/14 12:57:55;;;;;;;14.33;10.20;;;-1.00;99.90;;;;;;5059653;28;20213;-51